Terminal Aerodrome Forecast
Issued by NWS

Home | Current Version | Previous Version | Text Only | Print | Product List | Glossary On
Versions: 1 2 3 4 5 6 7 8 9 10 11 12 13 14 15
855
FTPA31 PHFO 221136
TAFSTU
TAF
NSTU 221136Z 2212/2312 12012KT P6SM SCT025 BKN040 BKN110
     FM222100 10016KT P6SM VCSH SCT025 BKN040 BKN110=

USA.gov is the U.S. government's official web portal to all federal, state and local government web resources and services.